Time;durP1;ratioP1;P1;durP2;ratioP2;P2;SDS_P1;SDS_P2;PMS_P1;PMS_P2;Temp;Humidity;BMP_temperature;BMP_pressure;BME280_temperature;BME280_humidity;BME280_pressure;Samples;Min_cycle;Max_cycle;Signal;HPM_P1;HPM_P2
2022/01/02 00:08:50;;;;;;;21.10;12.60;;;9.10;99.80;;;;;;20921601;28;20196;-72
2022/01/02 00:19:05;;;;;;;23.70;13.30;;;9.10;99.70;;;;;;20921984;28;20667;-72
2022/01/02 00:29:07;;;;;;;21.37;12.87;;;9.00;99.70;;;;;;20921276;28;20546;-72
2022/01/02 00:39:09;;;;;;;19.13;11.23;;;9.00;99.90;;;;;;20919995;28;20321;-72
2022/01/02 00:49:12;;;;;;;20.00;12.50;;;9.00;99.90;;;;;;20900230;28;20211;-73
2022/01/02 00:59:29;;;;;;;20.93;11.77;;;9.00;99.40;;;;;;20901164;28;20227;-73
2022/01/02 01:09:32;;;;;;;17.47;10.97;;;9.00;99.60;;;;;;20918174;28;20200;-70
2022/01/02 01:19:34;;;;;;;19.63;11.57;;;8.90;99.60;;;;;;20917324;28;20305;-72
2022/01/02 01:29:37;;;;;;;17.73;10.90;;;8.80;99.20;;;;;;20897811;28;20262;-72
2022/01/02 01:39:38;;;;;;;15.07;9.47;;;8.70;99.50;;;;;;20915147;28;20657;-68
2022/01/02 01:49:40;;;;;;;14.90;9.27;;;8.70;99.40;;;;;;20915605;28;20215;-69
2022/01/02 01:59:42;;;;;;;16.67;9.50;;;8.60;99.00;;;;;;20915037;28;20234;-71
2022/01/02 02:10:28;;;;;;;19.77;9.20;;;8.50;98.90;;;;;;20932064;28;20215;-70
2022/01/02 02:20:26;;;;;;;12.77;9.00;;;8.50;99.10;;;;;;20922007;28;20231;-73
2022/01/02 02:30:31;;;;;;;15.23;9.57;;;8.40;99.10;;;;;;20929495;28;20195;-72
2022/01/02 02:40:34;;;;;;;14.93;10.47;;;8.50;98.80;;;;;;20928447;28;20247;-70
2022/01/02 02:50:35;;;;;;;16.23;10.07;;;8.50;99.10;;;;;;20927859;28;20208;-72
2022/01/02 03:00:37;;;;;;;19.07;11.27;;;8.40;99.00;;;;;;20927736;28;20231;-70
2022/01/02 03:10:39;;;;;;;22.47;11.10;;;8.50;99.00;;;;;;20909515;28;20236;-72
2022/01/02 03:20:41;;;;;;;20.20;10.60;;;8.50;99.10;;;;;;20925787;28;20232;-73
2022/01/02 03:30:42;;;;;;;26.97;11.67;;;8.40;99.10;;;;;;20926050;28;20227;-72
2022/01/02 03:40:44;;;;;;;47.73;13.60;;;8.20;99.00;;;;;;20924021;28;20665;-70
2022/01/02 03:50:46;;;;;;;33.40;10.43;;;8.30;99.40;;;;;;20924641;28;20200;-66
2022/01/02 04:00:48;;;;;;;17.93;9.70;;;8.30;99.30;;;;;;20923506;28;20591;-72
2022/01/02 04:10:50;;;;;;;15.40;9.90;;;8.30;99.60;;;;;;20923210;28;20206;-72
2022/01/02 04:20:51;;;;;;;21.10;8.87;;;8.30;99.60;;;;;;20921230;28;20254;-69
2022/01/02 04:30:53;;;;;;;29.30;10.00;;;8.30;99.60;;;;;;20919651;28;20218;-66
2022/01/02 04:40:56;;;;;;;23.47;9.37;;;8.10;99.40;;;;;;20919041;28;20247;-67
2022/01/02 04:50:58;;;;;;;21.50;9.03;;;8.20;99.70;;;;;;20918432;28;20211;-68
2022/01/02 05:01:00;;;;;;;20.47;10.17;;;8.10;99.40;;;;;;20918807;28;20290;-66
2022/01/02 05:11:03;;;;;;;28.10;10.87;;;7.90;99.30;;;;;;20918232;28;20285;-67
2022/01/02 05:21:04;;;;;;;17.77;10.97;;;7.90;99.50;;;;;;20917439;28;20643;-70
2022/01/02 05:31:06;;;;;;;28.60;11.17;;;7.80;99.50;;;;;;20916865;28;20214;-72
2022/01/02 05:41:08;;;;;;;23.20;10.97;;;7.80;99.30;;;;;;20914888;28;20332;-69
2022/01/02 05:51:10;;;;;;;22.50;10.90;;;7.80;99.70;;;;;;20915968;28;20612;-67
2022/01/02 06:01:12;;;;;;;29.70;13.63;;;7.90;99.70;;;;;;20913636;28;20992;-67
2022/01/02 06:11:14;;;;;;;84.43;11.17;;;8.20;99.90;;;;;;20913794;28;20298;-64
2022/01/02 06:21:15;;;;;;;36.90;10.60;;;7.90;99.60;;;;;;20914565;28;20628;-66
2022/01/02 06:31:17;;;;;;;69.77;11.57;;;7.70;99.60;;;;;;20914202;28;20662;-69
2022/01/02 06:41:22;;;;;;;23.33;11.23;;;7.70;99.70;;;;;;20913148;28;20594;-65
2022/01/02 06:51:24;;;;;;;24.97;10.43;;;7.50;99.60;;;;;;20903691;28;20205;-67
2022/01/02 07:01:26;;;;;;;33.50;9.53;;;7.70;99.90;;;;;;20927449;28;20225;-65
2022/01/02 07:11:28;;;;;;;23.73;12.30;;;7.70;99.70;;;;;;20927357;28;20486;-63
2022/01/02 07:21:29;;;;;;;24.70;9.27;;;7.70;99.90;;;;;;20926979;28;20234;-60
2022/01/02 07:31:31;;;;;;;22.70;9.67;;;7.60;99.30;;;;;;20924911;28;20207;-66
2022/01/02 07:41:33;;;;;;;14.40;9.60;;;7.60;99.80;;;;;;20924209;28;20245;-64
2022/01/02 07:51:35;;;;;;;23.73;10.60;;;7.60;99.30;;;;;;20906604;28;20217;-65
2022/01/02 08:01:37;;;;;;;16.07;10.30;;;7.50;99.40;;;;;;20928868;28;20623;-67
2022/01/02 08:11:39;;;;;;;22.80;9.97;;;7.40;99.20;;;;;;20929682;28;20239;-66
2022/01/02 08:21:49;;;;;;;13.97;9.63;;;7.40;99.60;;;;;;20921146;28;20322;-67
2022/01/02 08:31:50;;;;;;;14.83;9.80;;;7.60;99.90;;;;;;20920885;28;20206;-67
2022/01/02 08:41:53;;;;;;;38.67;9.87;;;7.90;99.60;;;;;;20918421;28;20243;-62
2022/01/02 08:51:55;;;;;;;14.10;9.07;;;;;;;;;;20918937;28;20202;-73
2022/01/02 09:01:57;;;;;;;19.77;9.50;;;8.10;99.50;;;;;;20918062;28;20681;-71
2022/01/02 09:11:59;;;;;;;12.80;8.53;;;8.10;99.50;;;;;;20917124;28;20211;-72
2022/01/02 09:22:04;;;;;;;12.20;9.17;;;8.10;99.30;;;;;;20916610;28;20375;-75
2022/01/02 09:32:05;;;;;;;11.57;8.13;;;8.20;99.20;;;;;;20916092;28;20632;-78
2022/01/02 09:42:11;;;;;;;10.50;7.00;;;8.40;99.10;;;;;;20914294;28;20242;-74
2022/01/02 09:52:13;;;;;;;12.90;8.20;;;8.40;99.40;;;;;;20915418;28;20196;-71
2022/01/02 10:02:14;;;;;;;13.07;9.60;;;8.50;98.90;;;;;;20914458;28;20565;-72
2022/01/02 10:12:32;;;;;;;14.03;9.50;;;8.50;99.10;;;;;;20914000;28;20295;-69
2022/01/02 10:22:34;;;;;;;12.50;9.10;;;8.50;99.10;;;;;;20917135;28;20215;-69
2022/01/02 10:32:37;;;;;;;12.47;9.50;;;8.70;98.90;;;;;;20931914;28;20204;-69
2022/01/02 10:42:44;;;;;;;14.27;9.73;;;8.80;99.20;;;;;;20928405;28;20240;-68
2022/01/02 10:52:47;;;;;;;17.03;10.23;;;9.20;99.20;;;;;;20929318;28;20677;-69
2022/01/02 11:02:49;;;;;;;14.33;10.33;;;9.30;99.40;;;;;;20928255;28;20261;-66
2022/01/02 11:12:57;;;;;;;15.30;10.30;;;9.30;98.90;;;;;;20927660;28;20528;-66
2022/01/02 11:22:59;;;;;;;18.73;10.83;;;9.30;99.30;;;;;;20926762;28;20240;-65
2022/01/02 11:33:03;;;;;;;16.27;11.10;;;9.30;99.30;;;;;;20925831;28;20241;-69
2022/01/02 11:43:05;;;;;;;16.87;10.73;;;9.30;99.30;;;;;;20906539;28;20708;-70
2022/01/02 11:53:09;;;;;;;15.97;10.13;;;9.40;99.70;;;;;;20928143;28;20200;-74
2022/01/02 12:03:40;;;;;;;15.17;10.50;;;9.40;99.80;;;;;;20923906;28;20287;-73
2022/01/02 12:13:42;;;;;;;27.47;14.40;;;9.40;99.70;;;;;;20922942;28;20572;-71
2022/01/02 12:23:44;;;;;;;18.47;12.97;;;9.70;99.70;;;;;;20921964;28;20290;-69
2022/01/02 12:33:45;;;;;;;20.10;12.50;;;9.70;99.90;;;;;;20921269;28;20231;-70
2022/01/02 12:43:58;;;;;;;16.50;10.73;;;9.90;99.90;;;;;;20920748;28;20255;-72
2022/01/02 12:54:12;;;;;;;4.60;3.70;;;10.20;99.20;;;;;;20934492;28;20643;-72
2022/01/02 13:04:15;;;;;;;5.13;3.60;;;10.30;99.00;;;;;;20919003;28;20220;-71
2022/01/02 13:14:36;;;;;;;4.43;3.07;;;11.30;94.80;;;;;;20918148;28;20206;-71
2022/01/02 13:24:39;;;;;;;3.50;2.70;;;11.60;93.00;;;;;;20917384;28;20269;-71
2022/01/02 13:34:42;;;;;;;15.90;9.10;;;11.70;93.10;;;;;;20916327;28;20235;-69
2022/01/02 13:44:49;;;;;;;4.73;3.07;;;12.10;90.60;;;;;;20915910;28;20617;-72
2022/01/02 13:55:09;;;;;;;3.37;2.60;;;12.30;87.90;;;;;;20915435;28;20247;-64
2022/01/02 14:05:11;;;;;;;4.80;2.70;;;12.40;87.10;;;;;;20914858;28;20233;-71
2022/01/02 14:15:27;;;;;;;4.43;2.53;;;12.80;86.30;;;;;;20914553;28;20232;-68
2022/01/02 14:25:30;;;;;;;4.90;3.27;;;12.80;85.70;;;;;;20912859;28;20234;-69
2022/01/02 14:35:31;;;;;;;6.40;3.50;;;12.80;86.40;;;;;;20913742;28;20235;-70
2022/01/02 14:45:33;;;;;;;5.40;3.40;;;12.70;86.50;;;;;;20911664;28;20777;-68
2022/01/02 14:55:35;;;;;;;4.83;3.43;;;12.50;86.40;;;;;;20913472;28;20212;-74
2022/01/02 15:05:36;;;;;;;7.53;4.60;;;12.50;87.50;;;;;;20895553;28;20231;-69
2022/01/02 15:15:38;;;;;;;8.47;4.50;;;12.40;88.10;;;;;;20926027;28;20208;-68
2022/01/02 15:25:40;;;;;;;5.47;3.23;;;12.40;88.60;;;;;;20933661;28;20262;-69
2022/01/02 15:35:42;;;;;;;7.03;3.80;;;12.40;89.10;;;;;;20926327;28;20292;-69
2022/01/02 15:45:43;;;;;;;8.57;3.77;;;12.30;88.90;;;;;;20907731;28;20277;-70
2022/01/02 15:55:45;;;;;;;5.47;3.43;;;12.30;89.90;;;;;;20906832;28;20250;-72
2022/01/02 16:05:54;;;;;;;5.57;3.80;;;12.20;89.70;;;;;;20923613;28;20678;-70
2022/01/02 16:15:56;;;;;;;5.90;3.87;;;12.20;90.20;;;;;;20922698;28;20213;-67
2022/01/02 16:25:58;;;;;;;6.60;4.00;;;12.10;90.50;;;;;;20920907;28;20236;-67
2022/01/02 16:35:59;;;;;;;7.00;4.00;;;12.00;90.60;;;;;;20920739;28;20242;-75
2022/01/02 16:46:01;;;;;;;4.47;3.37;;;12.00;91.10;;;;;;20920391;28;20318;-71
2022/01/02 16:56:03;;;;;;;6.80;3.83;;;12.00;91.60;;;;;;20917818;28;20211;-74
2022/01/02 17:06:05;;;;;;;9.60;3.70;;;12.20;92.10;;;;;;20918651;28;20671;-77
2022/01/02 17:16:07;;;;;;;7.23;3.60;;;12.20;92.40;;;;;;20918177;28;20575;-70
2022/01/02 17:26:09;;;;;;;7.03;3.43;;;12.30;92.70;;;;;;20916947;28;20265;-78
2022/01/02 17:36:10;;;;;;;5.10;3.70;;;12.30;92.90;;;;;;20916963;28;20290;-77
2022/01/02 17:46:12;;;;;;;5.20;3.50;;;12.30;93.00;;;;;;20921627;28;20271;-66
2022/01/02 17:56:14;;;;;;;7.47;3.80;;;12.30;93.10;;;;;;20914509;28;20296;-67
2022/01/02 18:06:17;;;;;;;6.37;3.30;;;12.30;93.30;;;;;;20912845;28;20302;-65
2022/01/02 18:16:18;;;;;;;6.23;3.60;;;12.20;93.40;;;;;;20912460;28;20285;-65
2022/01/02 18:26:25;;;;;;;7.43;3.80;;;12.10;93.50;;;;;;20912201;28;20218;-68
2022/01/02 18:36:26;;;;;;;7.63;3.90;;;12.00;93.60;;;;;;20913506;28;20649;-69
2022/01/02 18:46:28;;;;;;;6.93;3.67;;;11.90;93.70;;;;;;20921347;28;20704;-70
2022/01/02 18:56:30;;;;;;;6.03;3.87;;;12.30;94.10;;;;;;20928977;28;20217;-70
2022/01/02 19:06:32;;;;;;;22.70;9.80;;;11.70;94.10;;;;;;20928327;28;20562;-67
2022/01/02 19:16:34;;;;;;;9.27;3.90;;;11.70;94.20;;;;;;20927707;28;20605;-73
2022/01/02 19:26:35;;;;;;;6.77;3.50;;;11.70;94.70;;;;;;20925641;28;20220;-69
2022/01/02 19:36:38;;;;;;;6.27;3.70;;;11.70;94.60;;;;;;20925518;28;20312;-66
2022/01/02 19:46:39;;;;;;;5.10;3.13;;;11.60;94.90;;;;;;20925321;28;20578;-68
2022/01/02 19:56:41;;;;;;;9.13;3.77;;;11.60;94.90;;;;;;20922880;28;20212;-68
2022/01/02 20:06:43;;;;;;;7.63;3.57;;;11.70;95.30;;;;;;20922197;28;20221;-65
2022/01/02 20:16:45;;;;;;;7.83;3.03;;;11.70;95.40;;;;;;20922705;28;20254;-67
2022/01/02 20:26:48;;;;;;;9.30;3.17;;;11.70;95.30;;;;;;20921487;28;20268;-70
2022/01/02 20:37:02;;;;;;;6.07;2.80;;;11.80;95.30;;;;;;20920581;28;20775;-68
2022/01/02 20:47:04;;;;;;;4.47;2.80;;;11.80;94.90;;;;;;20920423;28;20540;-67
2022/01/02 20:57:11;;;;;;;7.43;3.07;;;11.90;94.90;;;;;;20918285;28;20223;-68
2022/01/02 21:07:13;;;;;;;5.63;2.80;;;11.90;95.20;;;;;;20918325;28;20276;-69
2022/01/02 21:17:14;;;;;;;4.90;3.03;;;12.00;95.20;;;;;;20918010;28;20235;-67
2022/01/02 21:27:17;;;;;;;7.50;3.10;;;12.00;95.00;;;;;;20916179;28;20247;-66
2022/01/02 21:37:20;;;;;;;6.53;3.50;;;12.20;94.60;;;;;;20916736;28;20239;-68
2022/01/02 21:47:22;;;;;;;5.93;3.00;;;12.20;94.90;;;;;;20916782;28;20216;-66
2022/01/02 21:57:24;;;;;;;6.80;3.03;;;12.20;94.60;;;;;;20915423;28;20280;-65
2022/01/02 22:07:26;;;;;;;6.03;2.80;;;12.30;94.60;;;;;;20913888;28;20204;-66
2022/01/02 22:17:29;;;;;;;5.63;2.73;;;12.30;94.60;;;;;;20915907;28;20226;-66
2022/01/02 22:27:33;;;;;;;5.63;2.70;;;12.30;94.50;;;;;;20929989;28;20208;-66
2022/01/02 22:37:47;;;;;;;8.03;2.63;;;12.30;94.70;;;;;;20934067;28;20287;-66
2022/01/02 22:47:54;;;;;;;5.87;2.30;;;12.40;94.60;;;;;;20934086;28;20237;-67
2022/01/02 22:57:59;;;;;;;7.33;2.17;;;12.40;94.20;;;;;;20929465;28;20674;-67
2022/01/02 23:08:02;;;;;;;6.50;2.13;;;12.50;94.30;;;;;;20928838;28;20245;-66
2022/01/02 23:18:04;;;;;;;7.70;2.10;;;12.60;94.20;;;;;;20927926;28;20557;-67
2022/01/02 23:28:07;;;;;;;6.97;2.20;;;12.70;94.00;;;;;;20926802;28;20617;-66
2022/01/02 23:38:10;;;;;;;4.90;2.10;;;12.90;93.30;;;;;;20925639;28;20245;-67
2022/01/02 23:48:18;;;;;;;4.60;1.87;;;12.90;93.00;;;;;;20925813;28;20204;-67
2022/01/02 23:58:20;;;;;;;4.10;1.70;;;13.00;93.10;;;;;;20925256;28;20624;-72
